Aérodrome :







RETROUVEZ-NOUS SUR...

 
LOGIN :

S'inscrire | Disclaimer

   EN    FR    IT 

 









Légende :    VFR   VFR Marginal   IFR   IFR Intensif   IFR Très Intensif
Visi : 
Plafond : 
>= 8 km
>= 3000ft
5 à 8 km
1000 à 3000 ft
1500m à 5 km
500 à 1000 ft
800 à 1500m
200 à 500 ft
< 800m
< 200 ft
Symboles :   Orages  Brouillard  Fortes neiges  Fortes précipitations  Vent > 20 kt






- Altitude de l'aérodrome : 545 ft


KLCI - Laconia Municipal

DERNIER METAR :
  • 172356Z AUTO 24011KT 10SM CLR M15/M22 A3058 RMK AO2 SLP369 60000 T11501217 11094 21150 50010 FZRANO

METARs EXPIRÉS :
  • 172256Z AUTO 25014G19KT 10SM CLR M14/M22 A3059 RMK AO2 SLP372 T11391217 FZRANO
  • 172156Z AUTO 25010KT 10SM CLR M14/M21 A3057 RMK AO2 SLP366 T11391211 FZRANO

TAF N/A



MET'MAP, la Météo Aéronautique d'un coup d'oeil ! - Copyright ORBIFLY Décembre 2007 - Disclaimer

ORBIFLY MET'MAP TEAM :

Programmation & Développement : Alexandra Zaïnal
Sur une idée originale de : Baudouin d'Aumeries
Assistance à la programmation : Marc-Olivier Méhu
Soutien technique & logistique : Manuel Goepfert

Contact : metmap@orbifly.com




SOURCES & CREDITS :

   NOAA